createdAt,value
2018-06-19T00:04:48.987Z,77.2
2018-06-19T00:09:49.172Z,77.2
2018-06-19T00:14:48.999Z,77.1
2018-06-19T00:19:48.949Z,78.3
2018-06-19T00:25:00.092Z,77.2
2018-06-19T00:29:59.950Z,77.6
2018-06-19T00:35:00.000Z,77.7
2018-06-19T00:39:59.836Z,77.9
2018-06-19T00:44:59.946Z,77.9
2018-06-19T00:49:59.825Z,78.1
2018-06-19T00:55:00.042Z,78.4
2018-06-19T01:00:00.509Z,78.7
2018-06-19T01:05:00.223Z,79.1
2018-06-19T01:10:13.124Z,79.2
2018-06-19T01:15:13.066Z,80.4
2018-06-19T01:20:13.001Z,80.3
2018-06-19T01:25:12.856Z,80.1
2018-06-19T01:30:13.148Z,80.2
2018-06-19T01:35:12.989Z,80.2
2018-06-19T01:40:13.146Z,80.7
2018-06-19T01:45:14.208Z,80.7
2018-06-19T01:50:13.934Z,80.9
2018-06-19T01:55:24.323Z,80.7
2018-06-19T02:00:24.161Z,81.7
2018-06-19T02:05:24.055Z,80.5
2018-06-19T02:10:24.048Z,81.4
2018-06-19T02:15:24.286Z,81.3
2018-06-19T02:20:24.272Z,80.7
2018-06-19T02:25:24.281Z,81.6
2018-06-19T02:30:24.298Z,80.8
2018-06-19T02:35:24.292Z,81.5
2018-06-19T02:40:35.303Z,82.1
2018-06-19T02:45:35.181Z,82.6
2018-06-19T02:50:35.218Z,82.8
2018-06-19T02:55:35.043Z,83.5
2018-06-19T03:00:35.053Z,82.8
2018-06-19T03:05:35.053Z,83
2018-06-19T03:10:35.248Z,83.1
2018-06-19T03:15:35.072Z,84.1
2018-06-19T03:20:35.020Z,83.7
2018-06-19T03:25:46.254Z,85.3
2018-06-19T03:30:46.137Z,85.5
2018-06-19T03:35:46.176Z,86.1
2018-06-19T03:40:45.989Z,86
2018-06-19T03:45:46.136Z,86.1
2018-06-19T03:50:45.972Z,87
2018-06-19T03:55:45.980Z,85.9
2018-06-19T04:00:45.987Z,83.8
2018-06-19T04:05:46.007Z,83
2018-06-19T04:10:57.042Z,83.1
2018-06-19T04:15:56.798Z,82.9
2018-06-19T04:20:56.819Z,81.6
2018-06-19T04:25:56.960Z,81.9
2018-06-19T04:30:56.986Z,80.8
2018-06-19T04:35:56.853Z,82.2
2018-06-19T04:40:56.857Z,81.2
2018-06-19T04:45:58.808Z,82.1
2018-06-19T04:50:58.665Z,81.6
2018-06-19T04:56:09.302Z,81.5
2018-06-19T05:01:09.018Z,81
2018-06-19T05:06:09.044Z,81.1
2018-06-19T05:11:09.014Z,81.2
2018-06-19T05:16:09.180Z,81
2018-06-19T05:21:09.027Z,81.8
2018-06-19T05:26:09.033Z,80
2018-06-19T05:31:09.024Z,80.5
2018-06-19T05:36:09.029Z,80.2
2018-06-19T05:41:20.297Z,79.3
2018-06-19T05:46:20.148Z,79.9
2018-06-19T05:51:20.069Z,81
2018-06-19T05:56:20.056Z,80
2018-06-19T06:06:22.285Z,79
2018-06-19T06:11:24.990Z,80.5
2018-06-19T06:16:25.036Z,78.9
2018-06-19T06:21:24.866Z,81.2
2018-06-19T06:26:27.779Z,80.1
2018-06-19T06:31:24.976Z,77.2
2018-06-19T06:36:24.976Z,75.2
2018-06-19T06:41:24.780Z,74.7
2018-06-19T06:46:26.785Z,73.2
2018-06-19T06:51:26.504Z,71.1
2018-06-19T06:56:36.731Z,72.4
2018-06-19T07:01:36.460Z,69.3
2018-06-19T07:06:36.649Z,69.8
2018-06-19T07:11:36.689Z,67.7
2018-06-19T07:16:36.732Z,67.2
2018-06-19T07:21:36.522Z,66.8
2018-06-19T07:26:36.685Z,67.6
2018-06-19T07:31:41.820Z,65.6
2018-06-19T07:36:41.594Z,65.4
2018-06-19T07:41:53.724Z,65.2
2018-06-19T07:46:53.622Z,63.6
2018-06-19T07:51:53.643Z,62.5
2018-06-19T07:56:53.448Z,61.2
2018-06-19T08:01:53.482Z,61.5
2018-06-19T08:06:53.656Z,61
2018-06-19T08:11:53.462Z,61.5
2018-06-19T08:16:53.454Z,58.8
2018-06-19T08:21:53.465Z,58.8
2018-06-19T08:27:05.511Z,56.4
2018-06-19T08:32:05.191Z,57.1
2018-06-19T08:37:05.339Z,55.3
2018-06-19T08:42:05.609Z,56.6
2018-06-19T08:47:05.247Z,56.3
2018-06-19T08:52:10.470Z,54.7
2018-06-19T08:57:10.428Z,53.3
2018-06-19T09:02:10.457Z,51.5
2018-06-19T09:07:10.458Z,51.4
2018-06-19T09:12:21.774Z,52
2018-06-19T09:17:21.569Z,51.7
2018-06-19T09:22:21.490Z,48.8
2018-06-19T09:27:21.641Z,49.2
2018-06-19T09:32:21.682Z,48.6
2018-06-19T09:37:21.507Z,48.9
2018-06-19T09:42:21.514Z,50
2018-06-19T09:47:21.517Z,49.5
2018-06-19T09:52:21.707Z,49
2018-06-19T09:57:32.938Z,50.2
2018-06-19T10:02:32.668Z,49.5
2018-06-19T10:07:32.770Z,47.7
2018-06-19T10:12:32.788Z,50
2018-06-19T10:17:32.849Z,46.3
2018-06-19T10:22:32.863Z,47.4
2018-06-19T10:27:32.681Z,50
2018-06-19T10:32:32.693Z,49.5
2018-06-19T10:37:32.874Z,48.2
2018-06-19T10:42:44.715Z,49.8
2018-06-19T10:47:44.620Z,50.3
2018-06-19T10:52:44.757Z,48.7
2018-06-19T10:57:44.445Z,48.4
2018-06-19T11:02:44.600Z,49.7
2018-06-19T11:07:44.427Z,50.7
2018-06-19T11:12:44.634Z,49.8
2018-06-19T11:17:44.462Z,48.1
2018-06-19T11:22:44.623Z,46.8
2018-06-19T11:27:56.204Z,47
2018-06-19T11:32:56.084Z,48
2018-06-19T11:37:55.938Z,47.6
2018-06-19T11:42:55.933Z,46.5
2018-06-19T11:47:56.378Z,44.4
2018-06-19T11:52:56.319Z,44.6
2018-06-19T11:57:56.145Z,44.2
2018-06-19T12:02:56.165Z,43
2018-06-19T12:07:56.310Z,43.9
2018-06-19T12:13:08.255Z,44.6
2018-06-19T12:18:08.584Z,43.8
2018-06-19T12:23:07.814Z,43.4
2018-06-19T12:28:08.042Z,43.1
2018-06-19T12:33:07.953Z,44.8
2018-06-19T12:38:07.832Z,43.9
2018-06-19T12:43:07.843Z,44.8
2018-06-19T12:48:09.740Z,44.9
2018-06-19T12:53:09.504Z,45.4
2018-06-19T12:58:21.896Z,42.5
2018-06-19T13:03:21.764Z,42.6
2018-06-19T13:08:21.815Z,42.3
2018-06-19T13:13:21.650Z,42.5
2018-06-19T13:18:21.610Z,41.5
2018-06-19T13:23:21.814Z,42
2018-06-19T13:33:21.788Z,43.5
2018-06-19T13:38:21.813Z,44
2018-06-19T13:43:21.681Z,44
2018-06-19T13:48:21.677Z,43.1
2018-06-19T13:53:21.957Z,43.2
2018-06-19T13:58:26.243Z,43
2018-06-19T14:03:26.099Z,43.7
2018-06-19T14:08:38.591Z,43.5
2018-06-19T14:13:38.305Z,44.9
2018-06-19T14:18:38.366Z,45.2
2018-06-19T14:23:38.316Z,44.7
2018-06-19T14:28:38.286Z,45.7
2018-06-19T14:33:38.302Z,46.5
2018-06-19T14:38:38.314Z,44.3
2018-06-19T14:43:38.810Z,44.4
2018-06-19T14:48:38.569Z,44.6
2018-06-19T14:53:51.049Z,45.1
2018-06-19T14:58:50.771Z,44.6
2018-06-19T15:03:53.527Z,45.1
2018-06-19T15:08:50.777Z,45.7
2018-06-19T15:13:50.779Z,46.2
2018-06-19T15:18:50.978Z,45.9
2018-06-19T15:23:51.006Z,45.8
2018-06-19T15:28:50.844Z,45.1
2018-06-19T15:33:51.067Z,45.3
2018-06-19T15:39:03.084Z,46.6
2018-06-19T15:44:02.824Z,46
2018-06-19T15:49:02.956Z,48.1
2018-06-19T15:54:02.833Z,48.3
2018-06-19T15:59:03.047Z,47.1
2018-06-19T16:04:02.831Z,47
2018-06-19T16:09:03.024Z,46.6
2018-06-19T16:14:03.464Z,47.4
2018-06-19T16:19:03.190Z,47.5
2018-06-19T16:24:16.098Z,48.1
2018-06-19T16:29:16.033Z,46.7
2018-06-19T16:34:15.808Z,45.8
2018-06-19T16:39:15.999Z,46.6
2018-06-19T16:44:16.057Z,47.5
2018-06-19T16:49:15.839Z,46.8
2018-06-19T16:54:15.905Z,48.4
2018-06-19T16:59:16.516Z,49.6
2018-06-19T17:04:16.307Z,49.6
2018-06-19T17:09:28.833Z,49.2
2018-06-19T17:14:28.563Z,49.9
2018-06-19T17:19:28.982Z,50.2
2018-06-19T17:24:28.523Z,51.7
2018-06-19T17:29:28.562Z,51.4
2018-06-19T17:34:28.544Z,51
2018-06-19T17:39:28.557Z,50.4
2018-06-19T17:44:28.782Z,50.8
2018-06-19T17:49:28.590Z,51.4
2018-06-19T17:54:40.922Z,50.9
2018-06-19T17:59:40.654Z,51.9
2018-06-19T18:04:40.585Z,52.1
2018-06-19T18:09:40.627Z,52.5
2018-06-19T18:14:40.662Z,52.6
2018-06-19T18:19:40.676Z,54.4
2018-06-19T18:24:40.653Z,54.9
2018-06-19T18:29:40.659Z,55.8
2018-06-19T18:34:40.665Z,55.7
2018-06-19T18:39:40.898Z,56.5
2018-06-19T18:44:40.877Z,57.2
2018-06-19T18:49:40.894Z,58.7
2018-06-19T18:54:41.456Z,58.5
2018-06-19T18:59:41.101Z,58.6
2018-06-19T19:04:53.493Z,58.7
2018-06-19T19:09:53.087Z,59.3
2018-06-19T19:14:53.109Z,59.1
2018-06-19T19:19:53.103Z,59.9
2018-06-19T19:24:53.128Z,59.7
2018-06-19T19:29:53.107Z,60.6
2018-06-19T19:34:53.178Z,61.6
2018-06-19T19:39:55.986Z,62.4
2018-06-19T19:44:54.511Z,63.2
2018-06-19T19:50:05.116Z,62
2018-06-19T19:55:04.990Z,62.6
2018-06-19T20:00:05.049Z,62.7
2018-06-19T20:05:04.787Z,63.7
2018-06-19T20:10:04.924Z,62.7
2018-06-19T20:15:04.804Z,63.5
2018-06-19T20:20:04.730Z,62.9
2018-06-19T20:25:04.788Z,63.5
2018-06-19T20:30:04.797Z,67
2018-06-19T20:35:04.910Z,65.4
2018-06-19T20:40:04.785Z,66.1
2018-06-19T20:45:04.798Z,66
2018-06-19T20:50:04.833Z,66
2018-06-19T20:55:04.804Z,66.2
2018-06-19T21:00:16.872Z,66.7
2018-06-19T21:05:16.522Z,67.7
2018-06-19T21:10:16.524Z,67.2
2018-06-19T21:15:16.543Z,67
2018-06-19T21:20:16.538Z,68.3
2018-06-19T21:25:17.401Z,69.3
2018-06-19T21:30:17.133Z,69.6
2018-06-19T21:35:17.128Z,70.7
2018-06-19T21:40:17.320Z,70.9
2018-06-19T21:45:17.303Z,69.3
2018-06-19T21:50:17.328Z,70.1
2018-06-19T21:55:17.275Z,70.1
2018-06-19T22:00:19.157Z,70.4
2018-06-19T22:05:18.876Z,70.8
2018-06-19T22:10:29.539Z,70.7
2018-06-19T22:15:29.463Z,71
2018-06-19T22:20:29.272Z,71.6
2018-06-19T22:25:29.421Z,70.9
2018-06-19T22:30:29.268Z,71.1
2018-06-19T22:35:37.056Z,71
2018-06-19T22:40:52.371Z,72.1
2018-06-19T22:51:01.264Z,72
2018-06-19T22:55:29.251Z,71.8
2018-06-19T23:00:29.267Z,73.2
2018-06-19T23:05:33.637Z,73.5
2018-06-19T23:10:33.828Z,74.8
2018-06-19T23:15:35.148Z,74.7
2018-06-19T23:20:34.889Z,73.9
2018-06-19T23:25:47.491Z,73.6
2018-06-19T23:30:47.385Z,73.9
2018-06-19T23:35:47.442Z,74.1
2018-06-19T23:40:47.356Z,74.3
2018-06-19T23:45:47.377Z,74.4
2018-06-19T23:50:47.217Z,75.1
2018-06-19T23:55:47.216Z,74.3
